PGT69MM LTAC-LTFJ
Flight info
| Callsign | PGT69MM |
|---|---|
| Flight time | 0h 45m |
| Altitude | 24000 |
| Route | PETAR L614 UMRUN G8 TOKER |
| Aircraft | A20N/M-SDE2E3FGHIRWXY/LB1 |
Departure
| Time | 2026-05-07 17:17 |
|---|---|
| Airport | Esenboğa International Airport (LTAC) |
Arrival
| Time | 2026-05-07 18:02 |
|---|---|
| Airport | Istanbul Sabiha Gökçen International Airport (LTFJ) |
| Time | Latitude | Longitude | Altitude | Speed | Heading |
|---|---|---|---|---|---|
| 2026-05-07 16:56 | 40.11627 | 32.99184 | 3113 ft | 0 kts | 150° |
| 2026-05-07 17:00 | 40.11628 | 32.99183 | 3113 ft | 2 kts | 150° |
| 2026-05-07 17:00 | 40.11649 | 32.99167 | 3113 ft | 4 kts | 148° |
| 2026-05-07 17:00 | 40.11671 | 32.99147 | 3113 ft | 4 kts | 134° |
| 2026-05-07 17:01 | 40.11683 | 32.99122 | 3113 ft | 3 kts | 67° |
| 2026-05-07 17:01 | 40.11681 | 32.99117 | 3113 ft | 0 kts | 58° |
| 2026-05-07 17:03 | 40.11686 | 32.99124 | 3113 ft | 3 kts | 48° |
| 2026-05-07 17:03 | 40.11710 | 32.99133 | 3113 ft | 5 kts | 357° |
| 2026-05-07 17:03 | 40.11749 | 32.99109 | 3113 ft | 8 kts | 334° |
| 2026-05-07 17:03 | 40.11791 | 32.99066 | 3113 ft | 7 kts | 310° |
| 2026-05-07 17:04 | 40.11839 | 32.99044 | 3113 ft | 10 kts | 11° |
| 2026-05-07 17:04 | 40.11912 | 32.99106 | 3114 ft | 15 kts | 37° |
| 2026-05-07 17:04 | 40.12010 | 32.99199 | 3115 ft | 20 kts | 36° |
| 2026-05-07 17:04 | 40.12131 | 32.99316 | 3117 ft | 24 kts | 36° |
| 2026-05-07 17:05 | 40.12268 | 32.99447 | 3118 ft | 25 kts | 36° |
| 2026-05-07 17:05 | 40.12408 | 32.99579 | 3120 ft | 22 kts | 36° |
| 2026-05-07 17:05 | 40.12532 | 32.99698 | 3122 ft | 22 kts | 36° |
| 2026-05-07 17:05 | 40.12658 | 32.99819 | 3123 ft | 23 kts | 36° |
| 2026-05-07 17:06 | 40.12788 | 32.99942 | 3124 ft | 23 kts | 36° |
| 2026-05-07 17:06 | 40.12921 | 33.00069 | 3125 ft | 24 kts | 36° |
| 2026-05-07 17:06 | 40.13048 | 33.00191 | 3124 ft | 21 kts | 36° |
| 2026-05-07 17:06 | 40.13167 | 33.00305 | 3125 ft | 20 kts | 36° |
| 2026-05-07 17:07 | 40.13266 | 33.00400 | 3129 ft | 16 kts | 37° |
| 2026-05-07 17:07 | 40.13350 | 33.00481 | 3130 ft | 16 kts | 36° |
| 2026-05-07 17:07 | 40.13455 | 33.00580 | 3131 ft | 19 kts | 36° |
| 2026-05-07 17:07 | 40.13565 | 33.00685 | 3132 ft | 20 kts | 36° |
| 2026-05-07 17:08 | 40.13674 | 33.00790 | 3133 ft | 18 kts | 36° |
| 2026-05-07 17:08 | 40.13777 | 33.00888 | 3134 ft | 18 kts | 36° |
| 2026-05-07 17:08 | 40.13868 | 33.00975 | 3135 ft | 13 kts | 36° |
| 2026-05-07 17:08 | 40.13934 | 33.01038 | 3135 ft | 10 kts | 36° |
| 2026-05-07 17:09 | 40.13990 | 33.01077 | 3136 ft | 8 kts | 13° |
| 2026-05-07 17:09 | 40.14021 | 33.01079 | 3136 ft | 6 kts | 357° |
| 2026-05-07 17:09 | 40.14059 | 33.01060 | 3136 ft | 3 kts | 329° |
| 2026-05-07 17:09 | 40.14060 | 33.01059 | 3136 ft | 0 kts | 328° |
| 2026-05-07 17:14 | 40.14064 | 33.01055 | 3136 ft | 3 kts | 325° |
| 2026-05-07 17:14 | 40.14091 | 33.01017 | 3136 ft | 7 kts | 304° |
| 2026-05-07 17:14 | 40.14107 | 33.00964 | 3136 ft | 6 kts | 287° |
| 2026-05-07 17:15 | 40.14124 | 33.00910 | 3136 ft | 6 kts | 297° |
| 2026-05-07 17:15 | 40.14149 | 33.00866 | 3136 ft | 8 kts | 307° |
| 2026-05-07 17:15 | 40.14186 | 33.00800 | 3136 ft | 9 kts | 306° |
| 2026-05-07 17:15 | 40.14216 | 33.00743 | 3136 ft | 6 kts | 299° |
| 2026-05-07 17:16 | 40.14219 | 33.00700 | 3136 ft | 4 kts | 249° |
| 2026-05-07 17:16 | 40.14204 | 33.00682 | 3136 ft | 3 kts | 217° |
| 2026-05-07 17:16 | 40.14086 | 33.00570 | 3135 ft | 55 kts | 216° |
| 2026-05-07 17:16 | 40.13591 | 33.00097 | 3130 ft | 119 kts | 216° |
| 2026-05-07 17:17 | 40.12780 | 32.99322 | 3124 ft | 168 kts | 216° |
| 2026-05-07 17:17 | 40.11813 | 32.98401 | 3668 ft | 172 kts | 217° |
| 2026-05-07 17:17 | 40.10830 | 32.97473 | 4505 ft | 172 kts | 217° |
| 2026-05-07 17:17 | 40.09855 | 32.96555 | 5178 ft | 177 kts | 218° |
| 2026-05-07 17:18 | 40.08798 | 32.95555 | 5452 ft | 199 kts | 217° |
| 2026-05-07 17:18 | 40.07616 | 32.94437 | 5677 ft | 221 kts | 217° |
| 2026-05-07 17:18 | 40.06307 | 32.93197 | 6020 ft | 243 kts | 218° |
| 2026-05-07 17:18 | 40.05158 | 32.91513 | 6469 ft | 262 kts | 244° |
| 2026-05-07 17:19 | 40.04770 | 32.89143 | 7187 ft | 270 kts | 275° |
| 2026-05-07 17:19 | 40.05358 | 32.86815 | 7983 ft | 276 kts | 300° |
| 2026-05-07 17:19 | 40.06362 | 32.84666 | 8834 ft | 279 kts | 300° |
| 2026-05-07 17:19 | 40.07363 | 32.82476 | 9695 ft | 283 kts | 300° |
| 2026-05-07 17:20 | 40.08364 | 32.80261 | 10332 ft | 295 kts | 300° |
| 2026-05-07 17:20 | 40.09458 | 32.77833 | 10598 ft | 319 kts | 300° |
| 2026-05-07 17:20 | 40.10597 | 32.75304 | 11047 ft | 332 kts | 300° |
| 2026-05-07 17:20 | 40.11776 | 32.72684 | 11781 ft | 337 kts | 300° |
| 2026-05-07 17:21 | 40.12958 | 32.69978 | 12560 ft | 340 kts | 295° |
| 2026-05-07 17:21 | 40.13608 | 32.67044 | 13484 ft | 338 kts | 277° |
| 2026-05-07 17:21 | 40.13836 | 32.63979 | 14263 ft | 340 kts | 276° |
| 2026-05-07 17:21 | 40.14032 | 32.60934 | 14930 ft | 342 kts | 276° |
| 2026-05-07 17:22 | 40.14220 | 32.57780 | 15593 ft | 345 kts | 276° |
| 2026-05-07 17:22 | 40.14400 | 32.54677 | 16227 ft | 348 kts | 276° |
| 2026-05-07 17:22 | 40.14584 | 32.51503 | 16872 ft | 351 kts | 276° |
| 2026-05-07 17:22 | 40.14772 | 32.48308 | 17513 ft | 355 kts | 276° |
| 2026-05-07 17:23 | 40.14962 | 32.45078 | 18150 ft | 358 kts | 276° |
| 2026-05-07 17:23 | 40.15154 | 32.41814 | 18734 ft | 362 kts | 276° |
| 2026-05-07 17:23 | 40.15347 | 32.38523 | 19229 ft | 367 kts | 277° |
| 2026-05-07 17:23 | 40.15547 | 32.35156 | 19612 ft | 374 kts | 277° |
| 2026-05-07 17:24 | 40.15752 | 32.31747 | 20118 ft | 378 kts | 277° |
| 2026-05-07 17:24 | 40.15957 | 32.28315 | 20649 ft | 380 kts | 277° |
| 2026-05-07 17:24 | 40.16162 | 32.24860 | 21160 ft | 382 kts | 277° |
| 2026-05-07 17:24 | 40.16365 | 32.21381 | 21679 ft | 384 kts | 277° |
| 2026-05-07 17:25 | 40.16568 | 32.17893 | 22192 ft | 386 kts | 277° |
| 2026-05-07 17:25 | 40.16769 | 32.14379 | 22699 ft | 388 kts | 277° |
| 2026-05-07 17:25 | 40.16969 | 32.10854 | 23220 ft | 390 kts | 277° |
| 2026-05-07 17:25 | 40.17169 | 32.07308 | 23715 ft | 392 kts | 278° |
| 2026-05-07 17:26 | 40.17399 | 32.03750 | 24053 ft | 394 kts | 279° |
| 2026-05-07 17:26 | 40.17657 | 32.00192 | 24137 ft | 390 kts | 279° |
| 2026-05-07 17:26 | 40.17925 | 31.96686 | 24165 ft | 385 kts | 279° |
| 2026-05-07 17:26 | 40.18196 | 31.93204 | 24166 ft | 384 kts | 279° |
| 2026-05-07 17:27 | 40.18464 | 31.89730 | 24165 ft | 384 kts | 279° |
| 2026-05-07 17:27 | 40.18750 | 31.86215 | 24155 ft | 383 kts | 281° |
| 2026-05-07 17:27 | 40.19112 | 31.82773 | 24160 ft | 382 kts | 282° |
| 2026-05-07 17:27 | 40.19533 | 31.79339 | 24161 ft | 382 kts | 283° |
| 2026-05-07 17:28 | 40.19971 | 31.75962 | 24155 ft | 382 kts | 283° |
| 2026-05-07 17:28 | 40.20420 | 31.72486 | 24153 ft | 382 kts | 283° |
| 2026-05-07 17:28 | 40.20848 | 31.69058 | 24155 ft | 382 kts | 282° |
| 2026-05-07 17:28 | 40.21264 | 31.65622 | 24159 ft | 383 kts | 282° |
| 2026-05-07 17:29 | 40.21675 | 31.62172 | 24165 ft | 383 kts | 282° |
| 2026-05-07 17:29 | 40.22078 | 31.58734 | 24155 ft | 382 kts | 282° |
| 2026-05-07 17:29 | 40.22474 | 31.55292 | 24154 ft | 382 kts | 282° |
| 2026-05-07 17:29 | 40.22738 | 31.53016 | 24146 ft | 382 kts | 282° |
| 2026-05-07 17:30 | 40.23275 | 31.48421 | 24149 ft | 382 kts | 282° |
| 2026-05-07 17:30 | 40.23676 | 31.44989 | 24132 ft | 382 kts | 282° |
| 2026-05-07 17:30 | 40.24076 | 31.41546 | 24129 ft | 382 kts | 282° |
| 2026-05-07 17:30 | 40.24468 | 31.38150 | 24134 ft | 382 kts | 282° |
| 2026-05-07 17:31 | 40.24865 | 31.34701 | 24138 ft | 383 kts | 282° |
| 2026-05-07 17:31 | 40.25264 | 31.31218 | 24130 ft | 382 kts | 282° |
| 2026-05-07 17:31 | 40.25657 | 31.27815 | 24133 ft | 382 kts | 282° |
| 2026-05-07 17:31 | 40.26051 | 31.24372 | 24133 ft | 383 kts | 282° |
| 2026-05-07 17:32 | 40.26445 | 31.20925 | 24131 ft | 383 kts | 282° |
| 2026-05-07 17:32 | 40.26837 | 31.17470 | 24124 ft | 383 kts | 282° |
| 2026-05-07 17:32 | 40.27232 | 31.13977 | 24131 ft | 383 kts | 282° |
| 2026-05-07 17:32 | 40.27489 | 31.11690 | 24123 ft | 383 kts | 282° |
| 2026-05-07 17:33 | 40.28009 | 31.07066 | 24130 ft | 383 kts | 282° |
| 2026-05-07 17:33 | 40.28400 | 31.03611 | 24126 ft | 383 kts | 282° |
| 2026-05-07 17:33 | 40.28789 | 31.00159 | 24129 ft | 384 kts | 282° |
| 2026-05-07 17:33 | 40.29174 | 30.96698 | 24127 ft | 384 kts | 282° |
| 2026-05-07 17:34 | 40.29556 | 30.93244 | 24126 ft | 384 kts | 282° |
| 2026-05-07 17:34 | 40.29935 | 30.89809 | 24077 ft | 375 kts | 281° |
| 2026-05-07 17:34 | 40.30269 | 30.86459 | 23762 ft | 368 kts | 280° |
| 2026-05-07 17:34 | 40.30547 | 30.83143 | 23267 ft | 365 kts | 279° |
| 2026-05-07 17:35 | 40.30806 | 30.79847 | 22752 ft | 362 kts | 279° |
| 2026-05-07 17:35 | 40.31053 | 30.76573 | 22248 ft | 360 kts | 279° |
| 2026-05-07 17:35 | 40.31295 | 30.73325 | 21771 ft | 357 kts | 279° |
| 2026-05-07 17:35 | 40.31535 | 30.70094 | 21300 ft | 355 kts | 278° |
| 2026-05-07 17:36 | 40.31775 | 30.66883 | 20851 ft | 353 kts | 278° |
| 2026-05-07 17:36 | 40.32013 | 30.63691 | 20402 ft | 351 kts | 278° |
| 2026-05-07 17:36 | 40.32249 | 30.60524 | 19964 ft | 349 kts | 278° |
| 2026-05-07 17:36 | 40.32485 | 30.57367 | 19542 ft | 347 kts | 278° |
| 2026-05-07 17:37 | 40.32718 | 30.54228 | 19133 ft | 345 kts | 278° |
| 2026-05-07 17:37 | 40.32949 | 30.51100 | 18735 ft | 344 kts | 278° |
| 2026-05-07 17:37 | 40.33177 | 30.47993 | 18331 ft | 342 kts | 278° |
| 2026-05-07 17:37 | 40.33402 | 30.44898 | 17862 ft | 340 kts | 278° |
| 2026-05-07 17:38 | 40.33626 | 30.41818 | 17428 ft | 338 kts | 278° |
| 2026-05-07 17:38 | 40.33852 | 30.38758 | 16998 ft | 337 kts | 278° |
| 2026-05-07 17:38 | 40.34074 | 30.35714 | 16597 ft | 335 kts | 278° |
| 2026-05-07 17:38 | 40.34293 | 30.32676 | 16197 ft | 333 kts | 278° |
| 2026-05-07 17:39 | 40.34510 | 30.29658 | 15806 ft | 332 kts | 277° |
| 2026-05-07 17:39 | 40.34724 | 30.26650 | 15451 ft | 330 kts | 277° |
| 2026-05-07 17:39 | 40.34938 | 30.23650 | 15205 ft | 331 kts | 278° |
| 2026-05-07 17:39 | 40.35152 | 30.20654 | 14958 ft | 329 kts | 277° |
| 2026-05-07 17:40 | 40.35365 | 30.17667 | 14718 ft | 328 kts | 277° |
| 2026-05-07 17:40 | 40.35577 | 30.14692 | 14473 ft | 328 kts | 278° |
| 2026-05-07 17:40 | 40.35787 | 30.11718 | 14234 ft | 326 kts | 278° |
| 2026-05-07 17:40 | 40.35994 | 30.08761 | 13999 ft | 325 kts | 277° |
| 2026-05-07 17:41 | 40.36200 | 30.05807 | 13742 ft | 324 kts | 277° |
| 2026-05-07 17:41 | 40.36407 | 30.02874 | 13466 ft | 323 kts | 277° |
| 2026-05-07 17:41 | 40.36612 | 29.99956 | 13202 ft | 321 kts | 277° |
| 2026-05-07 17:42 | 40.36767 | 29.96883 | 12929 ft | 320 kts | 276° |
| 2026-05-07 17:42 | 40.36942 | 29.93986 | 12665 ft | 318 kts | 277° |
| 2026-05-07 17:42 | 40.37152 | 29.91105 | 12396 ft | 316 kts | 278° |
| 2026-05-07 17:42 | 40.37373 | 29.88246 | 12149 ft | 315 kts | 278° |
| 2026-05-07 17:43 | 40.37590 | 29.85390 | 11890 ft | 313 kts | 278° |
| 2026-05-07 17:43 | 40.37797 | 29.82554 | 11639 ft | 312 kts | 277° |
| 2026-05-07 17:43 | 40.37996 | 29.79720 | 11388 ft | 311 kts | 277° |
| 2026-05-07 17:43 | 40.38186 | 29.76909 | 11139 ft | 309 kts | 277° |
| 2026-05-07 17:44 | 40.38373 | 29.74106 | 10895 ft | 308 kts | 277° |
| 2026-05-07 17:44 | 40.38559 | 29.71311 | 10643 ft | 306 kts | 277° |
| 2026-05-07 17:44 | 40.38745 | 29.68535 | 10406 ft | 305 kts | 277° |
| 2026-05-07 17:44 | 40.38927 | 29.65777 | 10166 ft | 303 kts | 277° |
| 2026-05-07 17:45 | 40.39107 | 29.63026 | 9935 ft | 299 kts | 276° |
| 2026-05-07 17:45 | 40.39279 | 29.60365 | 9793 ft | 288 kts | 276° |
| 2026-05-07 17:45 | 40.39449 | 29.57788 | 9666 ft | 280 kts | 276° |
| 2026-05-07 17:45 | 40.39615 | 29.55253 | 9532 ft | 278 kts | 277° |
| 2026-05-07 17:46 | 40.39725 | 29.53588 | 9442 ft | 277 kts | 276° |
| 2026-05-07 17:46 | 40.39889 | 29.51074 | 9310 ft | 276 kts | 276° |
| 2026-05-07 17:46 | 40.40050 | 29.48571 | 9179 ft | 275 kts | 276° |
| 2026-05-07 17:46 | 40.40211 | 29.46073 | 9052 ft | 274 kts | 276° |
| 2026-05-07 17:47 | 40.40369 | 29.43583 | 8921 ft | 274 kts | 276° |
| 2026-05-07 17:47 | 40.40516 | 29.41095 | 8791 ft | 273 kts | 273° |
| 2026-05-07 17:47 | 40.40495 | 29.38601 | 8661 ft | 273 kts | 271° |
| 2026-05-07 17:47 | 40.40467 | 29.36113 | 8537 ft | 272 kts | 271° |
| 2026-05-07 17:48 | 40.40440 | 29.33639 | 8409 ft | 272 kts | 271° |
| 2026-05-07 17:48 | 40.40410 | 29.31161 | 8273 ft | 271 kts | 270° |
| 2026-05-07 17:48 | 40.40380 | 29.28693 | 8149 ft | 270 kts | 270° |
| 2026-05-07 17:48 | 40.40351 | 29.26267 | 8032 ft | 260 kts | 270° |
| 2026-05-07 17:49 | 40.40324 | 29.23950 | 8006 ft | 249 kts | 272° |
| 2026-05-07 17:49 | 40.40537 | 29.21722 | 8007 ft | 245 kts | 286° |
| 2026-05-07 17:49 | 40.41183 | 29.19661 | 8002 ft | 245 kts | 300° |
| 2026-05-07 17:49 | 40.42077 | 29.17750 | 8006 ft | 245 kts | 301° |
| 2026-05-07 17:50 | 40.42966 | 29.15837 | 8002 ft | 245 kts | 301° |
| 2026-05-07 17:50 | 40.43834 | 29.13908 | 8000 ft | 246 kts | 296° |
| 2026-05-07 17:50 | 40.44389 | 29.11788 | 8004 ft | 246 kts | 281° |
| 2026-05-07 17:50 | 40.44484 | 29.09548 | 8008 ft | 247 kts | 266° |
| 2026-05-07 17:51 | 40.44307 | 29.07299 | 8009 ft | 248 kts | 265° |
| 2026-05-07 17:51 | 40.44136 | 29.05044 | 8006 ft | 248 kts | 266° |
| 2026-05-07 17:51 | 40.43968 | 29.02794 | 8006 ft | 248 kts | 266° |
| 2026-05-07 17:51 | 40.43799 | 29.00541 | 8009 ft | 248 kts | 266° |
| 2026-05-07 17:52 | 40.43912 | 28.98304 | 7949 ft | 246 kts | 287° |
| 2026-05-07 17:52 | 40.44696 | 28.96331 | 7819 ft | 246 kts | 311° |
| 2026-05-07 17:52 | 40.46069 | 28.95015 | 7698 ft | 249 kts | 336° |
| 2026-05-07 17:52 | 40.47763 | 28.94651 | 7568 ft | 246 kts | 3° |
| 2026-05-07 17:53 | 40.49437 | 28.95015 | 7445 ft | 244 kts | 7° |
| 2026-05-07 17:53 | 40.51109 | 28.95413 | 7321 ft | 244 kts | 7° |
| 2026-05-07 17:53 | 40.52788 | 28.95805 | 7197 ft | 245 kts | 6° |
| 2026-05-07 17:53 | 40.54461 | 28.96192 | 7070 ft | 243 kts | 7° |
| 2026-05-07 17:54 | 40.56131 | 28.96582 | 6944 ft | 244 kts | 6° |
| 2026-05-07 17:54 | 40.57803 | 28.96971 | 6741 ft | 242 kts | 6° |
| 2026-05-07 17:54 | 40.59436 | 28.97354 | 6615 ft | 235 kts | 6° |
| 2026-05-07 17:54 | 40.61026 | 28.97728 | 6286 ft | 232 kts | 6° |
| 2026-05-07 17:55 | 40.62597 | 28.98099 | 6007 ft | 225 kts | 6° |
| 2026-05-07 17:55 | 40.64108 | 28.98457 | 5692 ft | 219 kts | 6° |
| 2026-05-07 17:55 | 40.65606 | 28.98809 | 5321 ft | 218 kts | 6° |
| 2026-05-07 17:55 | 40.67094 | 28.99157 | 4946 ft | 218 kts | 6° |
| 2026-05-07 17:56 | 40.68584 | 28.99505 | 4696 ft | 217 kts | 6° |
| 2026-05-07 17:56 | 40.70066 | 28.99855 | 4451 ft | 215 kts | 6° |
| 2026-05-07 17:56 | 40.71538 | 29.00202 | 4212 ft | 214 kts | 6° |
| 2026-05-07 17:56 | 40.73005 | 29.00546 | 4044 ft | 213 kts | 6° |
| 2026-05-07 17:57 | 40.74464 | 29.00888 | 4006 ft | 213 kts | 6° |
| 2026-05-07 17:57 | 40.75427 | 29.01131 | 4006 ft | 214 kts | 11° |
| 2026-05-07 17:57 | 40.77209 | 29.02345 | 4008 ft | 221 kts | 38° |
| 2026-05-07 17:57 | 40.78206 | 29.03902 | 4011 ft | 225 kts | 55° |
| 2026-05-07 17:58 | 40.78960 | 29.05501 | 4006 ft | 225 kts | 54° |
| 2026-05-07 17:58 | 40.79834 | 29.07201 | 3953 ft | 223 kts | 55° |
| 2026-05-07 17:58 | 40.80596 | 29.08976 | 3730 ft | 223 kts | 60° |
| 2026-05-07 17:58 | 40.81292 | 29.10815 | 3451 ft | 224 kts | 61° |
| 2026-05-07 17:59 | 40.81981 | 29.12676 | 3158 ft | 226 kts | 62° |
| 2026-05-07 17:59 | 40.82674 | 29.14545 | 2862 ft | 228 kts | 62° |
| 2026-05-07 17:59 | 40.83374 | 29.16436 | 2559 ft | 229 kts | 62° |
| 2026-05-07 17:59 | 40.84061 | 29.18290 | 2257 ft | 220 kts | 62° |
| 2026-05-07 18:00 | 40.84721 | 29.20073 | 1976 ft | 212 kts | 63° |
| 2026-05-07 18:00 | 40.85342 | 29.21752 | 1708 ft | 194 kts | 63° |
| 2026-05-07 18:00 | 40.85906 | 29.23279 | 1476 ft | 176 kts | 63° |
| 2026-05-07 18:00 | 40.86417 | 29.24659 | 1240 ft | 160 kts | 63° |
| 2026-05-07 18:01 | 40.86881 | 29.25916 | 1030 ft | 150 kts | 64° |
| 2026-05-07 18:01 | 40.87337 | 29.27149 | 827 ft | 145 kts | 64° |
| 2026-05-07 18:01 | 40.87771 | 29.28325 | 649 ft | 143 kts | 64° |
| 2026-05-07 18:01 | 40.88204 | 29.29507 | 456 ft | 143 kts | 65° |
| 2026-05-07 18:02 | 40.88982 | 29.31610 | 300 ft | 75 kts | 64° |
| 2026-05-07 18:02 | 40.89111 | 29.31959 | 301 ft | 31 kts | 64° |
| 2026-05-07 18:02 | 40.89202 | 29.32196 | 302 ft | 27 kts | 60° |
| 2026-05-07 18:03 | 40.89306 | 29.32367 | 303 ft | 23 kts | 40° |
| 2026-05-07 18:03 | 40.89397 | 29.32456 | 303 ft | 14 kts | 34° |
| 2026-05-07 18:03 | 40.89449 | 29.32502 | 304 ft | 4 kts | 28° |
| 2026-05-07 18:03 | 40.89478 | 29.32504 | 305 ft | 4 kts | 348° |
| 2026-05-07 18:04 | 40.89502 | 29.32474 | 304 ft | 4 kts | 291° |
| 2026-05-07 18:04 | 40.89502 | 29.32473 | 304 ft | 0 kts | 289° |
| 2026-05-07 18:04 | 40.89502 | 29.32451 | 303 ft | 6 kts | 266° |
| 2026-05-07 18:04 | 40.89500 | 29.32392 | 303 ft | 6 kts | 292° |
| 2026-05-07 18:05 | 40.89544 | 29.32355 | 303 ft | 9 kts | 344° |
| 2026-05-07 18:05 | 40.89606 | 29.32336 | 305 ft | 11 kts | 342° |
| 2026-05-07 18:05 | 40.89696 | 29.32280 | 303 ft | 15 kts | 334° |
| 2026-05-07 18:05 | 40.89788 | 29.32222 | 306 ft | 14 kts | 334° |
| 2026-05-07 18:06 | 40.89870 | 29.32169 | 310 ft | 12 kts | 334° |
| 2026-05-07 18:06 | 40.89936 | 29.32127 | 311 ft | 10 kts | 334° |
| 2026-05-07 18:06 | 40.89999 | 29.32086 | 311 ft | 10 kts | 334° |
| 2026-05-07 18:06 | 40.90070 | 29.32055 | 311 ft | 11 kts | 6° |
| 2026-05-07 18:07 | 40.90116 | 29.32129 | 311 ft | 13 kts | 64° |
| 2026-05-07 18:07 | 40.90158 | 29.32242 | 311 ft | 13 kts | 64° |
| 2026-05-07 18:07 | 40.90196 | 29.32345 | 311 ft | 12 kts | 64° |
| 2026-05-07 18:07 | 40.90232 | 29.32445 | 311 ft | 12 kts | 64° |
| 2026-05-07 18:08 | 40.90270 | 29.32545 | 309 ft | 12 kts | 63° |
| 2026-05-07 18:08 | 40.90330 | 29.32583 | 310 ft | 9 kts | 343° |
| 2026-05-07 18:08 | 40.90400 | 29.32537 | 312 ft | 14 kts | 334° |
| 2026-05-07 18:08 | 40.90493 | 29.32478 | 312 ft | 16 kts | 334° |
| 2026-05-07 18:09 | 40.90578 | 29.32413 | 311 ft | 13 kts | 310° |
| 2026-05-07 18:09 | 40.90573 | 29.32297 | 310 ft | 14 kts | 242° |
| 2026-05-07 18:09 | 40.90527 | 29.32173 | 311 ft | 16 kts | 244° |
| 2026-05-07 18:09 | 40.90487 | 29.32063 | 311 ft | 11 kts | 247° |
| 2026-05-07 18:10 | 40.90512 | 29.31981 | 311 ft | 10 kts | 332° |
| 2026-05-07 18:10 | 40.90571 | 29.31944 | 311 ft | 9 kts | 334° |
| 2026-05-07 18:10 | 40.90609 | 29.31893 | 311 ft | 9 kts | 284° |
| 2026-05-07 18:10 | 40.90587 | 29.31808 | 311 ft | 10 kts | 243° |
| 2026-05-07 18:11 | 40.90559 | 29.31735 | 311 ft | 8 kts | 244° |
| 2026-05-07 18:11 | 40.90544 | 29.31693 | 311 ft | 7 kts | 244° |
| 2026-05-07 18:11 | 40.90519 | 29.31625 | 311 ft | 6 kts | 243° |
| 2026-05-07 18:11 | 40.90492 | 29.31600 | 311 ft | 5 kts | 181° |
| 2026-05-07 18:12 | 40.90451 | 29.31624 | 311 ft | 6 kts | 153° |
| 2026-05-07 18:12 | 40.90434 | 29.31635 | 311 ft | 0 kts | 154° |